createdAt,value
2023-05-14T00:01:59.145Z,4.03
2023-05-14T00:04:01.124Z,3.55
2023-05-14T00:06:03.199Z,3.03
2023-05-14T00:08:07.708Z,3.50
2023-05-14T00:10:09.750Z,3.17
2023-05-14T00:12:11.257Z,3.35
2023-05-14T00:14:13.045Z,3.22
2023-05-14T00:16:17.561Z,3.10
2023-05-14T00:18:19.226Z,3.22
2023-05-14T00:20:20.989Z,3.03
2023-05-14T00:22:22.691Z,3.08
2023-05-14T00:24:24.851Z,3.38
2023-05-14T00:26:30.865Z,4.20
2023-05-14T00:28:32.402Z,4.90
2023-05-14T00:30:37.193Z,4.15
2023-05-14T00:32:38.746Z,4.30
2023-05-14T00:34:42.960Z,3.97
2023-05-14T00:36:44.569Z,2.97
2023-05-14T00:38:46.311Z,2.92
2023-05-14T00:40:51.688Z,2.90
2023-05-14T00:42:53.819Z,2.40
2023-05-14T00:44:55.529Z,2.25
2023-05-14T00:47:06.533Z,2.58
2023-05-14T00:49:08.452Z,2.40
2023-05-14T00:51:10.117Z,2.88
2023-05-14T00:53:12.187Z,2.47
2023-05-14T00:55:16.571Z,2.30
2023-05-14T00:57:18.999Z,2.30
2023-05-14T00:59:23.141Z,2.88
2023-05-14T01:01:24.751Z,2.85
2023-05-14T01:03:29.493Z,3.20
2023-05-14T01:05:41.191Z,3.85
2023-05-14T01:07:54.064Z,3.33
2023-05-14T01:10:04.002Z,3.97
2023-05-14T01:12:19.284Z,3.83
2023-05-14T01:14:28.260Z,3.92
2023-05-14T01:16:33.349Z,4.38
2023-05-14T01:18:35.447Z,4.18
2023-05-14T01:20:40.950Z,4.60
2023-05-14T01:22:42.914Z,4.55
2023-05-14T01:24:47.979Z,5.15
2023-05-14T01:26:49.868Z,4.53
2023-05-14T01:28:52.947Z,4.00
2023-05-14T01:31:01.234Z,4.20
2023-05-14T01:33:06.758Z,4.15
2023-05-14T01:35:10.911Z,3.58
2023-05-14T01:37:13.632Z,3.53
2023-05-14T01:39:15.492Z,3.97
2023-05-14T01:41:19.585Z,3.22
2023-05-14T01:43:23.049Z,3.67
2023-05-14T01:45:24.779Z,3.75
2023-05-14T01:47:26.459Z,3.30
2023-05-14T01:49:28.455Z,3.60
2023-05-14T01:51:30.357Z,3.65
2023-05-14T01:53:34.152Z,4.20
2023-05-14T01:55:35.656Z,4.82
2023-05-14T01:57:37.302Z,4.90
2023-05-14T01:59:38.810Z,4.60
2023-05-14T02:01:40.389Z,4.85
2023-05-14T02:03:42.058Z,4.47
2023-05-14T02:05:43.578Z,4.07
2023-05-14T02:07:45.201Z,4.05
2023-05-14T02:09:49.563Z,3.58
2023-05-14T02:11:51.135Z,3.45
2023-05-14T02:13:52.724Z,3.67
2023-05-14T02:15:54.523Z,3.47
2023-05-14T02:17:56.319Z,3.50
2023-05-14T02:19:58.282Z,3.90
2023-05-14T02:22:01.295Z,3.20
2023-05-14T02:24:02.835Z,3.80
2023-05-14T02:26:05.142Z,3.67
2023-05-14T02:28:09.719Z,3.65
2023-05-14T02:30:11.852Z,4.13
2023-05-14T02:32:14.322Z,4.10
2023-05-14T02:34:16.253Z,4.22
2023-05-14T02:36:18.033Z,3.88
2023-05-14T02:38:20.364Z,4.38
2023-05-14T02:40:24.113Z,4.65
2023-05-14T02:42:27.088Z,4.07
2023-05-14T02:44:32.387Z,3.92
2023-05-14T02:46:35.072Z,4.07
2023-05-14T02:48:36.813Z,4.43
2023-05-14T02:50:38.492Z,4.30
2023-05-14T02:52:40.050Z,4.10
2023-05-14T02:54:41.546Z,3.75
2023-05-14T02:56:43.182Z,4.40
2023-05-14T02:58:44.736Z,3.90
2023-05-14T03:00:46.346Z,3.92
2023-05-14T03:02:48.637Z,3.90
2023-05-14T03:04:50.844Z,3.90
2023-05-14T03:06:52.354Z,3.88
2023-05-14T03:08:54.133Z,3.97
2023-05-14T03:10:58.905Z,3.88
2023-05-14T03:13:00.545Z,4.13
2023-05-14T03:15:02.216Z,3.67
2023-05-14T03:17:04.134Z,3.80
2023-05-14T03:19:05.804Z,3.92
2023-05-14T03:21:09.641Z,3.85
2023-05-14T03:23:11.281Z,4.20
2023-05-14T03:25:12.835Z,3.70
2023-05-14T03:27:14.287Z,3.95
2023-05-14T03:29:18.022Z,4.00
2023-05-14T03:31:19.827Z,3.67
2023-05-14T03:33:21.730Z,3.65
2023-05-14T03:35:25.628Z,3.70
2023-05-14T03:37:30.183Z,3.65
2023-05-14T03:39:31.795Z,4.03
2023-05-14T03:41:33.916Z,3.63
2023-05-14T03:43:35.543Z,3.60
2023-05-14T03:45:40.472Z,3.83
2023-05-14T03:47:42.880Z,3.70
2023-05-14T03:49:44.596Z,3.78
2023-05-14T03:51:48.174Z,3.47
2023-05-14T03:53:51.140Z,3.53
2023-05-14T03:55:52.623Z,3.45
2023-05-14T03:57:54.229Z,3.53
2023-05-14T03:59:55.987Z,3.63
2023-05-14T04:01:57.750Z,3.95
2023-05-14T04:04:00.802Z,3.80
2023-05-14T04:06:02.605Z,3.25
2023-05-14T04:08:04.258Z,3.42
2023-05-14T04:10:09.506Z,3.50
2023-05-14T04:12:13.477Z,3.90
2023-05-14T04:14:15.774Z,3.50
2023-05-14T04:16:18.609Z,3.67
2023-05-14T04:18:20.201Z,3.47
2023-05-14T04:20:23.782Z,3.60
2023-05-14T04:22:25.312Z,3.55
2023-05-14T04:24:27.068Z,3.55
2023-05-14T04:26:28.870Z,3.70
2023-05-14T04:28:32.964Z,3.85
2023-05-14T04:30:34.774Z,3.60
2023-05-14T04:32:36.683Z,3.10
2023-05-14T04:34:38.246Z,3.53
2023-05-14T04:36:40.208Z,3.53
2023-05-14T04:38:42.167Z,3.40
2023-05-14T04:40:43.709Z,3.58
2023-05-14T04:42:45.362Z,3.88
2023-05-14T04:44:49.923Z,3.40
2023-05-14T04:46:51.774Z,3.10
2023-05-14T04:48:53.262Z,3.75
2023-05-14T04:50:54.840Z,3.65
2023-05-14T04:52:56.274Z,3.60
2023-05-14T04:54:57.822Z,3.47
2023-05-14T04:57:03.255Z,3.70
2023-05-14T04:59:04.868Z,3.45
2023-05-14T05:01:06.459Z,3.63
2023-05-14T05:03:08.794Z,3.90
2023-05-14T05:05:10.408Z,3.83
2023-05-14T05:07:12.847Z,3.65
2023-05-14T05:09:17.591Z,3.63
2023-05-14T05:11:19.408Z,3.45
2023-05-14T05:13:21.309Z,3.47
2023-05-14T05:15:25.237Z,3.22
2023-05-14T05:17:29.544Z,3.72
2023-05-14T05:19:42.410Z,3.22
2023-05-14T05:21:45.936Z,3.30
2023-05-14T05:23:47.438Z,3.03
2023-05-14T05:25:50.340Z,3.05
2023-05-14T05:27:52.075Z,2.90
2023-05-14T05:29:53.744Z,2.90
2023-05-14T05:31:55.796Z,3.33
2023-05-14T05:34:00.719Z,3.13
2023-05-14T05:36:02.849Z,2.97
2023-05-14T05:38:04.519Z,3.67
2023-05-14T05:40:07.220Z,3.17
2023-05-14T05:42:11.659Z,3.33
2023-05-14T05:44:13.291Z,3.15
2023-05-14T05:46:15.261Z,2.88
2023-05-14T05:48:17.067Z,3.40
2023-05-14T05:50:19.976Z,3.22
2023-05-14T05:52:21.752Z,3.28
2023-05-14T05:54:25.406Z,3.30
2023-05-14T05:56:27.098Z,2.95
2023-05-14T05:58:28.865Z,2.97
2023-05-14T06:00:31.178Z,3.13
2023-05-14T06:02:32.941Z,3.05
2023-05-14T06:04:34.549Z,3.17
2023-05-14T06:06:40.390Z,3.25
2023-05-14T06:08:42.129Z,3.13
2023-05-14T06:10:44.212Z,3.40
2023-05-14T06:12:47.477Z,3.40
2023-05-14T06:14:48.926Z,3.60
2023-05-14T06:16:51.811Z,3.70
2023-05-14T06:18:54.528Z,3.47
2023-05-14T06:20:57.022Z,3.50
2023-05-14T06:22:58.496Z,3.70
2023-05-14T06:25:00.072Z,3.50
2023-05-14T06:27:01.520Z,3.58
2023-05-14T06:29:03.031Z,3.53
2023-05-14T06:31:04.558Z,3.58
2023-05-14T06:33:06.110Z,3.83
2023-05-14T06:35:08.346Z,3.67
2023-05-14T06:37:12.103Z,3.58
2023-05-14T06:39:13.950Z,3.70
2023-05-14T06:41:15.741Z,3.42
2023-05-14T06:43:17.295Z,3.35
2023-05-14T06:45:18.828Z,3.28
2023-05-14T06:47:20.430Z,3.40
2023-05-14T06:49:22.263Z,3.60
2023-05-14T06:51:26.624Z,3.50
2023-05-14T06:53:28.360Z,3.40
2023-05-14T06:55:32.761Z,3.60
2023-05-14T06:57:34.665Z,3.20
2023-05-14T06:59:38.220Z,3.40
2023-05-14T07:01:40.702Z,3.30
2023-05-14T07:03:42.474Z,3.03
2023-05-14T07:05:46.006Z,3.17
2023-05-14T07:07:47.486Z,3.60
2023-05-14T07:09:49.082Z,3.25
2023-05-14T07:11:50.685Z,3.90
2023-05-14T07:13:52.304Z,3.55
2023-05-14T07:15:55.774Z,3.30
2023-05-14T07:17:57.309Z,3.10
2023-05-14T07:19:59.235Z,3.47
2023-05-14T07:22:01.310Z,3.20
2023-05-14T07:24:02.828Z,3.40
2023-05-14T07:26:08.333Z,3.17
2023-05-14T07:28:09.826Z,3.28
2023-05-14T07:30:11.699Z,3.40
2023-05-14T07:32:15.458Z,3.13
2023-05-14T07:34:20.519Z,2.92
2023-05-14T07:36:22.417Z,3.38
2023-05-14T07:38:24.065Z,3.53
2023-05-14T07:40:25.902Z,3.22
2023-05-14T07:42:35.872Z,3.17
2023-05-14T07:44:38.805Z,3.03
2023-05-14T07:46:41.006Z,3.47
2023-05-14T07:48:42.518Z,3.42
2023-05-14T07:50:44.336Z,3.03
2023-05-14T07:52:45.980Z,3.25
2023-05-14T07:54:48.375Z,3.17
2023-05-14T07:56:52.069Z,3.10
2023-05-14T07:58:53.517Z,2.70
2023-05-14T08:00:56.398Z,3.17
2023-05-14T08:02:58.385Z,3.15
2023-05-14T08:05:00.242Z,3.28
2023-05-14T08:07:02.115Z,3.35
2023-05-14T08:09:05.376Z,2.95
2023-05-14T08:11:06.993Z,3.10
2023-05-14T08:13:08.511Z,3.28
2023-05-14T08:15:10.510Z,2.85
2023-05-14T08:17:12.248Z,3.00
2023-05-14T08:19:15.646Z,3.67
2023-05-14T08:21:17.569Z,3.15
2023-05-14T08:23:19.197Z,3.30
2023-05-14T08:25:20.699Z,2.85
2023-05-14T08:27:22.936Z,3.10
2023-05-14T08:29:25.802Z,3.20
2023-05-14T08:31:27.309Z,2.75
2023-05-14T08:33:29.056Z,2.90
2023-05-14T08:35:30.514Z,2.90
2023-05-14T08:37:32.076Z,2.90
2023-05-14T08:39:33.589Z,2.95
2023-05-14T08:41:35.631Z,2.78
2023-05-14T08:44:04.266Z,2.95
2023-05-14T08:46:06.688Z,3.00
2023-05-14T08:48:13.359Z,2.75
2023-05-14T08:50:15.394Z,3.13
2023-05-14T08:52:19.300Z,2.55
2023-05-14T08:54:23.754Z,2.63
2023-05-14T08:56:26.227Z,2.95
2023-05-14T08:58:29.022Z,2.67
2023-05-14T09:00:30.797Z,3.03
2023-05-14T09:02:40.162Z,3.00
2023-05-14T09:04:42.526Z,3.08
2023-05-14T09:06:46.569Z,2.88
2023-05-14T09:08:48.209Z,3.20
2023-05-14T09:10:52.725Z,2.95
2023-05-14T09:12:54.394Z,2.83
2023-05-14T09:14:56.191Z,3.22
2023-05-14T09:16:57.890Z,2.80
2023-05-14T09:18:59.853Z,3.42
2023-05-14T09:21:02.838Z,3.13
2023-05-14T09:23:04.435Z,3.08
2023-05-14T09:25:09.435Z,3.05
2023-05-14T09:27:19.770Z,3.03
2023-05-14T09:29:21.394Z,2.72
2023-05-14T09:31:23.234Z,3.10
2023-05-14T09:33:30.941Z,3.30
2023-05-14T09:35:33.585Z,2.90
2023-05-14T09:37:36.751Z,3.38
2023-05-14T09:39:41.576Z,3.45
2023-05-14T09:42:08.368Z,3.05
2023-05-14T09:44:09.856Z,3.17
2023-05-14T09:46:11.343Z,3.47
2023-05-14T09:48:13.313Z,3.28
2023-05-14T09:50:15.204Z,3.10
2023-05-14T09:52:19.401Z,3.17
2023-05-14T09:54:20.940Z,3.33
2023-05-14T09:56:22.793Z,3.60
2023-05-14T09:58:24.409Z,3.63
2023-05-14T10:00:26.255Z,3.25
2023-05-14T10:02:41.258Z,3.17
2023-05-14T10:04:45.019Z,3.60
2023-05-14T10:06:51.173Z,3.15
2023-05-14T10:08:56.352Z,3.30
2023-05-14T10:10:59.618Z,3.92
2023-05-14T10:13:06.791Z,3.25
2023-05-14T10:15:41.629Z,3.63
2023-05-14T10:17:48.190Z,3.38
2023-05-14T10:19:56.795Z,3.30
2023-05-14T10:22:05.040Z,2.92
2023-05-14T10:24:07.989Z,3.40
2023-05-14T10:26:10.732Z,3.90
2023-05-14T10:28:12.338Z,3.70
2023-05-14T10:30:16.844Z,3.75
2023-05-14T10:32:22.284Z,3.72
2023-05-14T10:34:34.611Z,4.55
2023-05-14T10:36:36.321Z,4.32
2023-05-14T10:38:38.225Z,4.05
2023-05-14T10:40:39.996Z,3.72
2023-05-14T10:42:45.346Z,4.00
2023-05-14T10:45:25.570Z,3.70
2023-05-14T10:47:29.894Z,3.50
2023-05-14T10:49:43.493Z,3.33
2023-05-14T10:51:49.334Z,3.25
2023-05-14T10:53:51.090Z,3.90
2023-05-14T10:55:55.371Z,3.25
2023-05-14T10:58:01.307Z,3.40
2023-05-14T11:00:03.402Z,3.20
2023-05-14T11:02:05.779Z,3.13
2023-05-14T11:04:07.297Z,3.30
2023-05-14T11:06:10.840Z,3.17
2023-05-14T11:08:12.575Z,3.25
2023-05-14T11:10:16.546Z,3.28
2023-05-14T11:12:18.443Z,3.38
2023-05-14T11:14:23.205Z,3.00
2023-05-14T11:16:30.683Z,3.40
2023-05-14T11:18:38.827Z,3.15
2023-05-14T11:20:41.292Z,3.00
2023-05-14T11:22:43.966Z,3.25
2023-05-14T11:24:45.550Z,3.35
2023-05-14T11:26:55.880Z,3.30
2023-05-14T11:28:57.545Z,3.17
2023-05-14T11:30:59.246Z,3.22
2023-05-14T11:33:02.098Z,3.38
2023-05-14T11:35:04.882Z,3.20
2023-05-14T11:37:10.201Z,3.40
2023-05-14T11:39:18.920Z,3.10
2023-05-14T11:41:22.880Z,3.15
2023-05-14T11:43:26.130Z,3.40
2023-05-14T11:45:29.701Z,3.15
2023-05-14T11:47:31.793Z,2.90
2023-05-14T11:49:36.029Z,3.00
2023-05-14T11:51:37.498Z,2.60
2023-05-14T11:53:39.126Z,2.78
2023-05-14T11:55:40.740Z,2.80
2023-05-14T11:57:42.917Z,2.95
2023-05-14T11:59:45.028Z,2.80
2023-05-14T12:01:48.067Z,2.90
2023-05-14T12:03:51.615Z,2.60
2023-05-14T12:06:02.565Z,2.40
2023-05-14T12:08:04.364Z,2.22
2023-05-14T12:10:06.503Z,2.33
2023-05-14T12:12:10.986Z,2.40
2023-05-14T12:14:16.667Z,2.40
2023-05-14T12:16:20.859Z,2.50
2023-05-14T12:18:25.316Z,2.70
2023-05-14T12:20:29.549Z,2.40
2023-05-14T12:22:31.197Z,2.40
2023-05-14T12:24:33.245Z,2.72
2023-05-14T12:26:36.074Z,2.70
2023-05-14T12:28:43.236Z,2.67
2023-05-14T12:30:47.926Z,2.50
2023-05-14T12:32:52.756Z,2.45
2023-05-14T12:34:54.653Z,2.50
2023-05-14T12:36:59.474Z,2.83
2023-05-14T12:39:03.522Z,2.80
2023-05-14T12:41:05.684Z,3.40
2023-05-14T12:43:09.632Z,3.10
2023-05-14T12:45:14.702Z,2.97
2023-05-14T12:47:17.397Z,2.72
2023-05-14T12:49:21.395Z,2.53
2023-05-14T12:51:23.272Z,2.50
2023-05-14T12:53:24.838Z,2.63
2023-05-14T12:55:28.415Z,2.88
2023-05-14T12:57:31.098Z,2.42
2023-05-14T12:59:38.331Z,2.42
2023-05-14T13:01:41.053Z,2.42
2023-05-14T13:03:42.629Z,2.83
2023-05-14T13:05:44.257Z,2.67
2023-05-14T13:07:46.062Z,2.58
2023-05-14T13:09:47.511Z,2.70
2023-05-14T13:11:49.039Z,2.88
2023-05-14T13:13:53.165Z,2.35
2023-05-14T13:15:55.610Z,2.28
2023-05-14T13:17:57.075Z,2.33
2023-05-14T13:19:58.705Z,2.47
2023-05-14T13:22:00.244Z,2.60
2023-05-14T13:24:01.786Z,2.35
2023-05-14T13:26:03.318Z,2.30
2023-05-14T13:28:07.550Z,2.38
2023-05-14T13:30:11.317Z,2.40
2023-05-14T13:32:13.030Z,2.78
2023-05-14T13:34:14.728Z,2.55
2023-05-14T13:36:16.313Z,2.10
2023-05-14T13:38:17.876Z,2.40
2023-05-14T13:40:28.522Z,2.80
2023-05-14T13:42:30.901Z,2.65
2023-05-14T13:44:32.332Z,2.58
2023-05-14T13:46:33.761Z,2.63
2023-05-14T13:48:37.070Z,2.72
2023-05-14T13:50:38.682Z,2.45
2023-05-14T13:52:40.472Z,2.13
2023-05-14T13:54:42.096Z,2.28
2023-05-14T13:56:43.618Z,2.45
2023-05-14T13:58:45.326Z,2.15
2023-05-14T14:00:46.918Z,2.35
2023-05-14T14:02:48.489Z,2.20
2023-05-14T14:04:52.115Z,2.38
2023-05-14T14:06:53.640Z,2.00
2023-05-14T14:08:55.130Z,2.28
2023-05-14T14:10:56.674Z,2.50
2023-05-14T14:12:58.348Z,2.20
2023-05-14T14:15:05.798Z,2.20
2023-05-14T14:17:08.985Z,2.33
2023-05-14T14:19:10.537Z,2.05
2023-05-14T14:21:12.394Z,2.42
2023-05-14T14:23:14.088Z,2.30
2023-05-14T14:25:16.540Z,2.22
2023-05-14T14:27:18.221Z,2.50
2023-05-14T14:29:22.217Z,2.10
2023-05-14T14:31:26.039Z,2.20
2023-05-14T14:33:27.673Z,2.20
2023-05-14T14:35:30.558Z,2.55
2023-05-14T14:37:35.998Z,2.40
2023-05-14T14:39:37.471Z,2.10
2023-05-14T14:41:39.366Z,2.22
2023-05-14T14:43:44.015Z,2.20
2023-05-14T14:45:48.800Z,1.85
2023-05-14T14:47:50.905Z,2.33
2023-05-14T14:49:52.531Z,1.92
2023-05-14T14:51:54.399Z,2.15
2023-05-14T14:53:57.789Z,2.42
2023-05-14T14:56:03.076Z,2.75
2023-05-14T14:58:04.521Z,2.47
2023-05-14T15:00:07.156Z,2.25
2023-05-14T15:02:11.047Z,2.20
2023-05-14T15:04:12.860Z,2.08
2023-05-14T15:06:14.434Z,2.00
2023-05-14T15:08:19.026Z,2.10
2023-05-14T15:10:22.781Z,2.30
2023-05-14T15:12:24.322Z,2.22
2023-05-14T15:14:25.796Z,2.17
2023-05-14T15:16:27.253Z,1.90
2023-05-14T15:18:28.685Z,1.92
2023-05-14T15:20:30.595Z,1.90
2023-05-14T15:22:32.178Z,1.90
2023-05-14T15:24:33.631Z,2.13
2023-05-14T15:26:35.329Z,2.00
2023-05-14T15:28:36.776Z,1.90
2023-05-14T15:30:38.389Z,2.00
2023-05-14T15:32:39.976Z,2.05
2023-05-14T15:34:41.418Z,2.10
2023-05-14T15:36:42.953Z,2.00
2023-05-14T15:38:44.590Z,2.15
2023-05-14T15:40:46.105Z,2.40
2023-05-14T15:42:47.531Z,2.40
2023-05-14T15:44:49.177Z,2.50
2023-05-14T15:46:51.017Z,2.50
2023-05-14T15:48:52.644Z,2.40
2023-05-14T15:50:54.305Z,2.50
2023-05-14T15:52:56.051Z,2.40
2023-05-14T15:54:59.445Z,2.40
2023-05-14T15:57:02.863Z,2.10
2023-05-14T15:59:07.938Z,2.70
2023-05-14T16:01:12.359Z,2.28
2023-05-14T16:03:19.490Z,1.98
2023-05-14T16:05:21.318Z,2.47
2023-05-14T16:07:26.141Z,3.28
2023-05-14T16:09:27.635Z,4.13
2023-05-14T16:11:32.970Z,4.47
2023-05-14T16:13:35.779Z,3.63
2023-05-14T16:15:37.589Z,3.33
2023-05-14T16:17:39.408Z,3.25
2023-05-14T16:19:41.328Z,3.25
2023-05-14T16:21:42.750Z,2.80
2023-05-14T16:23:44.527Z,3.20
2023-05-14T16:25:46.024Z,3.08
2023-05-14T16:27:47.523Z,3.03
2023-05-14T16:29:49.023Z,2.70
2023-05-14T16:31:52.729Z,2.97
2023-05-14T16:33:54.271Z,2.90
2023-05-14T16:35:55.822Z,2.40
2023-05-14T16:37:57.595Z,1.98
2023-05-14T16:39:59.338Z,1.98
2023-05-14T16:42:01.199Z,2.15
2023-05-14T16:44:03.454Z,2.08
2023-05-14T16:46:06.082Z,2.10
2023-05-14T16:48:13.074Z,2.28
2023-05-14T16:50:15.105Z,2.38
2023-05-14T16:52:16.894Z,2.40
2023-05-14T16:54:18.582Z,2.20
2023-05-14T16:56:21.337Z,2.25
2023-05-14T16:58:23.051Z,2.65
2023-05-14T17:00:24.712Z,2.22
2023-05-14T17:02:26.696Z,2.20
2023-05-14T17:04:28.308Z,2.22
2023-05-14T17:06:33.156Z,2.20
2023-05-14T17:08:38.449Z,2.55
2023-05-14T17:10:39.980Z,2.50
2023-05-14T17:12:41.542Z,2.10
2023-05-14T17:14:43.109Z,2.20
2023-05-14T17:16:44.666Z,2.53
2023-05-14T17:18:46.875Z,2.72
2023-05-14T17:20:54.410Z,2.40
2023-05-14T17:22:56.016Z,2.08
2023-05-14T17:24:59.490Z,2.92
2023-05-14T17:27:01.119Z,2.33
2023-05-14T17:29:03.044Z,2.45
2023-05-14T17:31:04.793Z,2.70
2023-05-14T17:33:06.550Z,2.75
2023-05-14T17:35:09.609Z,2.67
2023-05-14T17:37:11.086Z,2.95
2023-05-14T17:39:12.766Z,2.70
2023-05-14T17:41:14.283Z,2.72
2023-05-14T17:43:15.822Z,2.53
2023-05-14T17:45:20.588Z,2.80
2023-05-14T17:47:22.178Z,2.50
2023-05-14T17:49:23.943Z,2.60
2023-05-14T17:51:25.412Z,2.38
2023-05-14T17:53:26.969Z,2.50
2023-05-14T17:55:28.559Z,2.63
2023-05-14T17:57:30.178Z,2.35
2023-05-14T17:59:34.551Z,2.28
2023-05-14T18:01:41.843Z,2.35
2023-05-14T18:03:43.576Z,2.47
2023-05-14T18:05:45.108Z,2.80
2023-05-14T18:07:46.726Z,2.55
2023-05-14T18:09:48.766Z,2.45
2023-05-14T18:11:57.028Z,2.47
2023-05-14T18:13:58.648Z,2.70
2023-05-14T18:16:03.687Z,2.63
2023-05-14T18:18:05.611Z,2.60
2023-05-14T18:20:10.747Z,2.67
2023-05-14T18:22:12.397Z,2.90
2023-05-14T18:24:16.359Z,2.83
2023-05-14T18:26:17.881Z,2.58
2023-05-14T18:28:20.033Z,2.47
2023-05-14T18:30:24.594Z,2.65
2023-05-14T18:32:27.710Z,2.80
2023-05-14T18:34:29.390Z,2.45
2023-05-14T18:36:33.970Z,2.88
2023-05-14T18:38:35.665Z,2.47
2023-05-14T18:40:37.326Z,2.53
2023-05-14T18:42:38.839Z,2.38
2023-05-14T18:44:44.117Z,2.60
2023-05-14T18:46:46.067Z,2.50
2023-05-14T18:48:47.991Z,2.70
2023-05-14T18:50:55.455Z,3.10
2023-05-14T18:52:56.928Z,2.60
2023-05-14T18:54:58.419Z,2.60
2023-05-14T18:57:01.312Z,3.00
2023-05-14T18:59:05.414Z,2.55
2023-05-14T19:01:07.160Z,3.10
2023-05-14T19:03:11.449Z,3.67
2023-05-14T19:05:15.398Z,5.03
2023-05-14T19:07:17.022Z,6.30
2023-05-14T19:09:21.178Z,6.70
2023-05-14T19:11:22.798Z,5.15
2023-05-14T19:13:24.488Z,4.72
2023-05-14T19:15:26.278Z,3.63
2023-05-14T19:17:31.715Z,3.38
2023-05-14T19:19:33.357Z,2.58
2023-05-14T19:21:35.096Z,2.65
2023-05-14T19:23:36.914Z,2.80
2023-05-14T19:25:40.452Z,2.25
2023-05-14T19:27:42.226Z,2.30
2023-05-14T19:29:44.437Z,2.50
2023-05-14T19:31:46.085Z,2.10
2023-05-14T19:33:47.701Z,2.20
2023-05-14T19:35:51.965Z,2.20
2023-05-14T19:37:53.503Z,2.13
2023-05-14T19:39:55.152Z,2.20
2023-05-14T19:41:56.719Z,2.30
2023-05-14T19:43:58.228Z,2.30
2023-05-14T19:46:01.449Z,2.70
2023-05-14T19:48:05.568Z,2.53
2023-05-14T19:50:10.161Z,2.45
2023-05-14T19:52:11.739Z,2.45
2023-05-14T19:54:14.419Z,2.58
2023-05-14T19:56:18.455Z,2.60
2023-05-14T19:58:19.970Z,2.80
2023-05-14T20:00:22.744Z,2.72
2023-05-14T20:02:24.673Z,2.50
2023-05-14T20:04:28.053Z,2.70
2023-05-14T20:06:29.701Z,2.30
2023-05-14T20:08:31.146Z,5.50
2023-05-14T20:10:32.822Z,17.65
2023-05-14T20:12:40.697Z,31.48
2023-05-14T20:14:42.199Z,27.95
2023-05-14T20:16:43.832Z,23.63
2023-05-14T20:18:57.910Z,16.95
2023-05-14T20:20:59.837Z,11.13
2023-05-14T20:23:01.322Z,7.88
2023-05-14T20:25:04.944Z,5.82
2023-05-14T20:27:07.217Z,4.00
2023-05-14T20:29:10.952Z,2.97
2023-05-14T20:31:12.538Z,3.00
2023-05-14T20:33:15.059Z,2.50
2023-05-14T20:35:16.802Z,2.75
2023-05-14T20:37:19.874Z,2.20
2023-05-14T20:39:21.440Z,2.20
2023-05-14T20:41:22.930Z,1.98
2023-05-14T20:43:26.552Z,1.90
2023-05-14T20:45:29.404Z,2.15
2023-05-14T20:47:35.207Z,2.15
2023-05-14T20:49:36.887Z,2.85
2023-05-14T20:51:38.353Z,3.08
2023-05-14T20:53:40.763Z,3.00
2023-05-14T20:55:44.669Z,3.08
2023-05-14T20:57:46.267Z,2.75
2023-05-14T20:59:51.016Z,2.42
2023-05-14T21:01:52.515Z,2.30
2023-05-14T21:03:54.234Z,2.25
2023-05-14T21:05:56.829Z,2.28
2023-05-14T21:07:58.487Z,2.20
2023-05-14T21:09:59.918Z,2.30
2023-05-14T21:12:01.757Z,2.72
2023-05-14T21:14:03.463Z,2.25
2023-05-14T21:16:05.820Z,2.60
2023-05-14T21:18:07.402Z,2.63
2023-05-14T21:20:11.890Z,2.35
2023-05-14T21:22:13.930Z,2.42
2023-05-14T21:24:16.755Z,2.38
2023-05-14T21:26:18.873Z,2.40
2023-05-14T21:28:22.076Z,2.35
2023-05-14T21:30:23.745Z,2.20
2023-05-14T21:32:27.915Z,2.47
2023-05-14T21:34:32.379Z,2.28
2023-05-14T21:36:33.911Z,2.55
2023-05-14T21:38:36.046Z,2.28
2023-05-14T21:40:37.769Z,2.28
2023-05-14T21:42:42.654Z,2.47
2023-05-14T21:44:44.743Z,2.20
2023-05-14T21:46:47.317Z,2.47
2023-05-14T21:48:48.972Z,2.33
2023-05-14T21:50:50.602Z,2.17
2023-05-14T21:52:52.109Z,2.35
2023-05-14T21:54:53.761Z,2.40
2023-05-14T21:56:55.587Z,2.47
2023-05-14T21:58:57.183Z,2.30
2023-05-14T22:00:58.762Z,2.70
2023-05-14T22:03:00.389Z,2.50
2023-05-14T22:05:02.303Z,2.65
2023-05-14T22:07:04.008Z,2.65
2023-05-14T22:09:05.420Z,2.55
2023-05-14T22:11:06.847Z,2.42
2023-05-14T22:13:08.314Z,2.85
2023-05-14T22:15:10.983Z,2.38
2023-05-14T22:17:12.774Z,2.25
2023-05-14T22:19:16.411Z,2.75
2023-05-14T22:21:18.190Z,2.53
2023-05-14T22:23:19.977Z,2.58
2023-05-14T22:25:21.898Z,2.65
2023-05-14T22:27:23.381Z,2.60
2023-05-14T22:29:25.104Z,2.53
2023-05-14T22:31:27.047Z,2.53
2023-05-14T22:33:28.776Z,2.83
2023-05-14T22:35:30.369Z,2.47
2023-05-14T22:37:34.695Z,2.35
2023-05-14T22:39:36.217Z,2.72
2023-05-14T22:41:37.770Z,2.50
2023-05-14T22:43:39.252Z,2.65
2023-05-14T22:45:41.011Z,3.08
2023-05-14T22:47:42.631Z,2.40
2023-05-14T22:49:44.397Z,2.67
2023-05-14T22:51:45.939Z,2.83
2023-05-14T22:53:50.349Z,2.80
2023-05-14T22:55:53.719Z,3.00
2023-05-14T22:57:55.272Z,2.90
2023-05-14T22:59:56.797Z,2.92
2023-05-14T23:01:58.377Z,2.75
2023-05-14T23:03:59.954Z,2.80
2023-05-14T23:06:01.488Z,3.03
2023-05-14T23:08:03.674Z,3.03
2023-05-14T23:10:05.616Z,3.13
2023-05-14T23:12:07.579Z,3.10
2023-05-14T23:14:09.162Z,3.33
2023-05-14T23:16:11.118Z,2.88
2023-05-14T23:18:12.695Z,3.05
2023-05-14T23:20:14.420Z,3.10
2023-05-14T23:22:15.987Z,3.20
2023-05-14T23:24:17.531Z,2.92
2023-05-14T23:26:19.123Z,2.95
2023-05-14T23:28:20.756Z,2.90
2023-05-14T23:30:24.694Z,2.55
2023-05-14T23:32:27.024Z,2.97
2023-05-14T23:34:28.701Z,3.03
2023-05-14T23:36:32.952Z,2.90
2023-05-14T23:38:34.725Z,2.72
2023-05-14T23:40:36.308Z,2.95
2023-05-14T23:42:37.897Z,2.83
2023-05-14T23:44:39.448Z,2.70
2023-05-14T23:46:41.217Z,2.95
2023-05-14T23:48:42.992Z,2.95
2023-05-14T23:50:44.672Z,3.10
2023-05-14T23:52:46.305Z,3.05
2023-05-14T23:54:48.263Z,2.95
2023-05-14T23:56:49.900Z,2.95
2023-05-14T23:58:51.838Z,3.13
